Overview Statistics Trail Chart Weather Telemetry Raw packets
 

This is the latest recevied weather packets stored in our database for station/object KO4YAW. If no packets are shown the sender has not sent any weather packets the latest 10 day(s).

<< 33 34 35 36 37 38 39 >>
Time Temp. Humidity Pressure Rain* Wind** Luminosity Snow
1787888988 22.22° C 44% 1022.9 hPa 0 mm - 0 W/m² -
1787888088 22.78° C 43% 1022.8 hPa 0 mm - 0 W/m² -
1787887188 22.78° C 42% 1022.7 hPa 0 mm - 0 W/m² -
1787886288 23.33° C 41% 1022.4 hPa 0 mm - 0 W/m² -
1787885388 23.33° C 40% 1022.2 hPa 0 mm - 0 W/m² -
1787884488 23.33° C 40% 1022.2 hPa 0 mm - 0 W/m² -
1787883588 23.33° C 41% 1021.9 hPa 0 mm - 0 W/m² -
1787882688 23.89° C 42% 1022.1 hPa 0 mm - 0 W/m² -
1787881788 24.44° C 41% 1022.1 hPa 0 mm - 1 W/m² -
1787880888 25° C 38% 1022.2 hPa 0 mm - 7 W/m² -
1787879988 26.11° C 36% 1021.9 hPa 0 mm - 20 W/m² -
1787879088 26.67° C 35% 1021.9 hPa 0 mm - 33 W/m² -
1787878188 27.22° C 35% 1022.1 hPa 0 mm - 49 W/m² -
1787877288 30° C 30% 1021.9 hPa 0 mm - 132 W/m² -
1787876388 31.67° C 26% 1021.7 hPa 0 mm - 173 W/m² -
1787875488 31.67° C 23% 1021.7 hPa 0 mm - 230 W/m² -
1787874588 29.44° C 25% 1021.7 hPa 0 mm - 364 W/m² -
1787873688 29.44° C 26% 1021.9 hPa 0 mm - 88 W/m² -
1787872788 29.44° C 25% 1021.9 hPa 0 mm - 67 W/m² -
1787871888 30° C 25% 1021.9 hPa 0 mm - 84 W/m² -
1787870988 30.56° C 25% 1021.9 hPa 0 mm - 110 W/m² -
1787870087 30.56° C 25% 1022.3 hPa 0 mm - 195 W/m² -
1787869187 30° C 24% 1022.4 hPa 0 mm - 169 W/m² -
1787868287 30.56° C 24% 1022.4 hPa 0 mm - 87 W/m² -
1787867387 31.11° C 23% 1022.4 hPa 0 mm - 84 W/m² -

* Rain since midnight (hover to see other rain measurements)
** Current wind speed in m/s (hover to see current wind gust speed)